Downloaded metar tags

Downloaded metar tags don’t work at all. I think to have done all right but tags don’t go.
Any idea by anyone??
Tuono.

Hi
tick that option in the custom web page setup, (under setup, ftp/internet setup)

Ok Brian, it works now. But tags value are always stamped in both metric and english. Not possible just metric values??
Bye and thanks.
Tuono.

try
%downloadedmetar1tempcelsius%…Temperature reading in celsius

Doesn’t work Brian, here is the output of
%downloadedmetar1tempcelsius%:
partly cloudy Temperature: 78 F (26 C) Dew Point: 64 F (18 C) Relative Humidity: 61% Pressure (altimeter): 30.12 in. Hg (1020 hPa) ob: LIRN 191120Z 17007KT 8000 SCT020 26/18 Q1020 cycle: 11

Ciao.

Tuono.

dang
email me the metar file you are using
[email protected]

Ok.
Napoli / Capodichino, Italy (LIRN) 40-51N 014-18E 72M
May 19, 2003 - 02:50 PM EDT / 2003.05.19 1850 UTC
Wind: Variable at 3 MPH (3 KT):0
Visibility: greater than 7 mile(s):0
Temperature: 68 F (20 C)
Dew Point: 60 F (16 C)
Relative Humidity: 77%
Pressure (altimeter): 30.09 in. Hg (1019 hPa)
ob: LIRN 191850Z VRB03KT CAVOK 20/16 Q1019
cycle: 19

Roma / Urbe, Italy (LIRU) 41-57N 012-30E 24M
May 19, 2003 - 01:50 PM EDT / 2003.05.19 1750 UTC
Wind: from the SW (230 degrees) at 6 MPH (5 KT):0
Visibility: greater than 7 mile(s):0
Temperature: 71 F (22 C)
Dew Point: 55 F (13 C)
Relative Humidity: 56%
Pressure (altimeter): 30.06 in. Hg (1018 hPa)
ob: LIRU 191750Z 23005KT CAVOK 22/13 Q1018
cycle: 18

Bye, Tuono.

hi
i haved some more things
please try a new 9.78 now

Done, the output of %downloadedmetar1tempcelsius% is: “LIRN:TXT” that is the name of the file metar.
Ciao.
Tuono.

hi
i have done another test
and its OK
I suspect you dont have the new 9.78 version
i.e it has been cached by your ISP
the file creation time should be 9:22am

It seems to work properly with the 9.78a version.
In case of problem I will update you.
Ciao Brian.
Tuono.

It seems to work properly with the 9.78a version.
In case of problem I will update you.
Ciao Brian.
Tuono.

thats good
in case of it not working, just post up the metar